createdAt,value
2019-04-11T00:01:10.106Z,100161.60
2019-04-11T00:03:41.798Z,100168.20
2019-04-11T00:06:13.314Z,100169.27
2019-04-11T00:08:45.890Z,100180.42
2019-04-11T00:11:17.801Z,100179.73
2019-04-11T00:13:49.550Z,100189.39
2019-04-11T00:16:21.428Z,100196.66
2019-04-11T00:18:54.727Z,100191.32
2019-04-11T00:21:26.277Z,100205.27
2019-04-11T00:23:58.608Z,100212.83
2019-04-11T00:26:32.598Z,100219.79
2019-04-11T00:29:04.164Z,100214.46
2019-04-11T00:31:36.809Z,100220.61
2019-04-11T00:34:08.915Z,100219.66
2019-04-11T00:36:41.719Z,100216.07
2019-04-11T00:39:13.410Z,100218.16
2019-04-11T00:41:46.018Z,100215.03
2019-04-11T00:44:17.542Z,100212.72
2019-04-11T00:46:48.960Z,100210.88
2019-04-11T00:49:24.191Z,100206.26
2019-04-11T00:51:56.218Z,100204.22
2019-04-11T00:54:28.909Z,100201.00
2019-04-11T00:57:01.729Z,100201.81
2019-04-11T00:59:34.149Z,100209.47
2019-04-11T01:02:07.278Z,100214.29
2019-04-11T01:04:39.141Z,100214.52
2019-04-11T01:07:11.064Z,100213.86
2019-04-11T01:09:42.776Z,100214.06
2019-04-11T01:12:14.377Z,100216.01
2019-04-11T01:14:46.833Z,100211.05
2019-04-11T01:17:18.386Z,100206.82
2019-04-11T01:19:51.063Z,100205.80
2019-04-11T01:22:22.632Z,100204.58
2019-04-11T01:24:54.033Z,100201.37
2019-04-11T01:27:25.724Z,100201.38
2019-04-11T01:29:57.840Z,100190.20
2019-04-11T01:32:30.515Z,100192.58
2019-04-11T01:35:02.049Z,100193.27
2019-04-11T01:37:33.548Z,100190.05
2019-04-11T01:40:07.670Z,100183.86
2019-04-11T01:42:39.698Z,100172.44
2019-04-11T01:45:11.740Z,100175.35
2019-04-11T01:47:57.409Z,100176.57
2019-04-11T01:50:30.314Z,100178.42
2019-04-11T01:53:02.630Z,100175.91
2019-04-11T01:55:34.753Z,100170.30
2019-04-11T01:58:06.657Z,100172.50
2019-04-11T02:00:56.908Z,100176.48
2019-04-11T02:03:45.595Z,100180.38
2019-04-11T02:06:18.021Z,100180.72
2019-04-11T02:08:49.582Z,100186.02
2019-04-11T02:11:21.350Z,100189.57
2019-04-11T02:14:05.095Z,100195.06
2019-04-11T02:16:25.831Z,100200.84
2019-04-11T02:18:57.301Z,100210.37
2019-04-11T02:21:29.567Z,100206.63
2019-04-11T02:24:05.851Z,100211.58
2019-04-11T02:26:38.901Z,100218.05
2019-04-11T02:29:11.140Z,100220.59
2019-04-11T02:31:44.400Z,100224.55
2019-04-11T02:34:16.017Z,100218.77
2019-04-11T02:36:47.132Z,100227.80
2019-04-11T02:39:20.316Z,100226.44
2019-04-11T02:41:52.755Z,100221.86
2019-04-11T02:44:41.112Z,100221.67
2019-04-11T02:47:07.480Z,100221.00
2019-04-11T02:49:31.185Z,100225.58
2019-04-11T02:52:03.406Z,100226.28
2019-04-11T02:54:34.785Z,100222.20
2019-04-11T02:57:07.919Z,100229.50
2019-04-11T02:59:40.950Z,100226.97
2019-04-11T03:02:16.431Z,100226.25
2019-04-11T03:04:47.955Z,100228.51
2019-04-11T03:07:18.386Z,100224.92
2019-04-11T03:09:51.052Z,100229.00
2019-04-11T03:12:24.016Z,100234.63
2019-04-11T03:15:12.639Z,100240.73
2019-04-11T03:17:34.137Z,100241.75
2019-04-11T03:20:13.160Z,100243.61
2019-04-11T03:22:34.957Z,100247.69
2019-04-11T03:25:08.471Z,100247.04
2019-04-11T03:27:40.943Z,100256.69
2019-04-11T03:30:19.322Z,100266.77
2019-04-11T03:33:43.359Z,100265.75
2019-04-11T03:36:07.595Z,100269.15
2019-04-11T03:38:15.622Z,100268.80
2019-04-11T03:40:48.257Z,100271.39
2019-04-11T03:43:09.304Z,100271.72
2019-04-11T03:45:47.914Z,100269.84
2019-04-11T03:48:20.435Z,100267.63
2019-04-11T03:50:39.403Z,100261.86
2019-04-11T03:53:12.204Z,100266.78
2019-04-11T03:55:45.395Z,100271.55
2019-04-11T03:58:17.515Z,100271.04
2019-04-11T04:00:52.862Z,100266.28
2019-04-11T04:03:24.571Z,100266.10
2019-04-11T04:05:57.980Z,100263.52
2019-04-11T04:08:31.495Z,100255.52
2019-04-11T04:11:14.948Z,100246.66
2019-04-11T04:14:04.416Z,100260.74
2019-04-11T04:16:56.495Z,100259.00
2019-04-11T04:19:31.051Z,100258.36
2019-04-11T04:22:05.136Z,100257.83
2019-04-11T04:24:40.511Z,100252.01
2019-04-11T04:27:10.963Z,100259.83
2019-04-11T04:29:46.663Z,100254.50
2019-04-11T04:32:16.321Z,100257.36
2019-04-11T04:34:49.063Z,100256.00
2019-04-11T04:37:23.589Z,100254.88
2019-04-11T04:40:16.272Z,100257.62
2019-04-11T04:42:32.219Z,100264.75
2019-04-11T04:44:59.733Z,100266.81
2019-04-11T04:47:39.648Z,100270.90
2019-04-11T04:50:06.633Z,100273.33
2019-04-11T04:52:38.137Z,100274.92
2019-04-11T04:55:10.653Z,100270.50
2019-04-11T04:57:42.974Z,100277.69
2019-04-11T05:00:15.244Z,100269.47
2019-04-11T05:02:48.016Z,100263.69
2019-04-11T05:05:19.752Z,100267.48
2019-04-11T05:07:51.949Z,100271.22
2019-04-11T05:10:26.381Z,100274.25
2019-04-11T05:12:59.220Z,100282.45
2019-04-11T05:15:32.348Z,100277.39
2019-04-11T05:18:04.268Z,100281.97
2019-04-11T05:20:36.367Z,100284.31
2019-04-11T05:23:08.459Z,100291.30
2019-04-11T05:25:39.894Z,100286.91
2019-04-11T05:28:12.039Z,100283.02
2019-04-11T05:30:44.917Z,100288.77
2019-04-11T05:33:16.503Z,100304.66
2019-04-11T05:35:49.978Z,100304.66
2019-04-11T05:38:21.743Z,100315.05
2019-04-11T05:40:53.068Z,100316.23
2019-04-11T05:43:29.289Z,100325.52
2019-04-11T05:45:58.324Z,100323.05
2019-04-11T05:48:45.225Z,100324.06
2019-04-11T05:51:21.330Z,100321.98
2019-04-11T05:53:52.629Z,100318.30
2019-04-11T05:56:25.626Z,100323.27
2019-04-11T05:58:59.887Z,100317.67
2019-04-11T06:01:34.069Z,100313.78
2019-04-11T06:04:13.140Z,100317.23
2019-04-11T06:06:44.754Z,100314.66
2019-04-11T06:09:30.382Z,100311.78
2019-04-11T06:12:05.259Z,100313.66
2019-04-11T06:14:39.616Z,100315.59
2019-04-11T06:17:14.286Z,100318.70
2019-04-11T06:19:50.783Z,100318.21
2019-04-11T06:22:23.420Z,100331.44
2019-04-11T06:24:56.786Z,100325.30
2019-04-11T06:27:36.158Z,100335.58
2019-04-11T06:30:16.560Z,100331.34
2019-04-11T06:32:49.703Z,100337.78
2019-04-11T06:35:26.132Z,100338.83
2019-04-11T06:38:06.044Z,100336.97
2019-04-11T06:40:57.819Z,100341.80
2019-04-11T06:43:32.058Z,100341.87
2019-04-11T06:46:09.093Z,100342.94
2019-04-11T06:49:00.184Z,100338.97
2019-04-11T06:51:39.947Z,100340.83
2019-04-11T06:54:25.309Z,100337.27
2019-04-11T06:56:57.288Z,100341.16
2019-04-11T06:59:30.484Z,100346.31
2019-04-11T07:02:11.511Z,100347.45
2019-04-11T07:04:44.135Z,100350.27
2019-04-11T07:07:16.419Z,100353.80
2019-04-11T07:09:53.473Z,100354.41
2019-04-11T07:12:32.980Z,100357.08
2019-04-11T07:15:08.638Z,100350.36
2019-04-11T07:17:58.871Z,100354.08
2019-04-11T07:20:44.110Z,100352.39
2019-04-11T07:23:33.528Z,100352.44
2019-04-11T07:26:07.944Z,100358.46
2019-04-11T07:28:41.745Z,100350.75
2019-04-11T07:31:21.712Z,100350.50
2019-04-11T07:33:56.187Z,100349.92
2019-04-11T07:36:38.530Z,100357.42
2019-04-11T07:39:12.914Z,100360.49
2019-04-11T07:41:47.918Z,100360.70
2019-04-11T07:44:21.851Z,100360.09
2019-04-11T07:46:55.913Z,100363.08
2019-04-11T07:49:35.061Z,100356.23
2019-04-11T07:52:11.093Z,100358.22
2019-04-11T07:54:43.370Z,100359.22
2019-04-11T07:57:23.025Z,100364.41
2019-04-11T07:59:59.952Z,100361.66
2019-04-11T08:02:33.398Z,100355.72
2019-04-11T08:05:17.669Z,100349.70
2019-04-11T08:08:06.839Z,100352.83
2019-04-11T08:10:41.445Z,100351.46
2019-04-11T08:13:20.813Z,100354.36
2019-04-11T08:16:10.577Z,100348.65
2019-04-11T08:18:59.305Z,100345.73
2019-04-11T08:21:38.921Z,100348.02
2019-04-11T08:24:18.503Z,100338.33
2019-04-11T08:27:09.544Z,100344.34
2019-04-11T08:29:42.154Z,100336.56
2019-04-11T08:32:31.728Z,100341.76
2019-04-11T08:35:21.188Z,100347.59
2019-04-11T08:38:02.971Z,100341.80
2019-04-11T08:40:53.355Z,100342.70
2019-04-11T08:43:29.262Z,100343.17
2019-04-11T08:46:05.048Z,100345.77
2019-04-11T08:48:39.274Z,100348.12
2019-04-11T08:51:16.885Z,100351.09
2019-04-11T08:54:01.469Z,100350.91
2019-04-11T08:56:33.020Z,100348.06
2019-04-11T08:59:11.892Z,100349.03
2019-04-11T09:01:46.006Z,100347.09
2019-04-11T09:04:36.926Z,100341.78
2019-04-11T09:07:10.212Z,100342.47
2019-04-11T09:09:45.746Z,100341.56
2019-04-11T09:12:20.863Z,100334.31
2019-04-11T09:15:06.492Z,100343.36
2019-04-11T09:17:48.375Z,100331.74
2019-04-11T09:20:24.313Z,100334.33
2019-04-11T09:23:01.728Z,100322.49
2019-04-11T09:25:55.402Z,100327.09
2019-04-11T09:28:29.239Z,100323.62
2019-04-11T09:31:09.322Z,100321.90
2019-04-11T09:33:57.747Z,100321.64
2019-04-11T09:36:38.796Z,100317.59
2019-04-11T09:39:19.158Z,100319.39
2019-04-11T09:42:16.830Z,100312.50
2019-04-11T09:44:53.199Z,100308.92
2019-04-11T09:47:33.681Z,100307.72
2019-04-11T09:50:24.597Z,100311.22
2019-04-11T09:52:59.910Z,100307.76
2019-04-11T09:55:41.993Z,100302.36
2019-04-11T09:58:27.484Z,100304.10
2019-04-11T10:01:20.314Z,100300.94
2019-04-11T10:03:52.916Z,100302.20
2019-04-11T10:06:32.389Z,100300.83
2019-04-11T10:09:07.935Z,100302.42
2019-04-11T10:11:48.497Z,100298.03
2019-04-11T10:14:21.619Z,100309.62
2019-04-11T10:17:11.234Z,100301.88
2019-04-11T10:19:46.297Z,100304.28
2019-04-11T10:22:34.094Z,100304.02
2019-04-11T10:25:14.879Z,100300.87
2019-04-11T10:28:05.966Z,100306.47
2019-04-11T10:30:44.147Z,100302.36
2019-04-11T10:33:29.366Z,100300.16
2019-04-11T10:36:14.699Z,100296.14
2019-04-11T10:38:46.805Z,100295.59
2019-04-11T10:41:28.663Z,100295.93
2019-04-11T10:44:01.322Z,100296.65
2019-04-11T10:46:47.355Z,100302.06
2019-04-11T10:49:24.826Z,100297.54
2019-04-11T10:52:00.587Z,100296.34
2019-04-11T10:54:33.744Z,100305.69
2019-04-11T10:57:21.468Z,100296.48
2019-04-11T10:59:54.607Z,100292.28
2019-04-11T11:02:33.740Z,100290.42
2019-04-11T11:05:07.375Z,100296.35
2019-04-11T11:07:44.707Z,100291.85
2019-04-11T11:10:17.953Z,100292.27
2019-04-11T11:13:07.826Z,100294.13
2019-04-11T11:15:41.922Z,100287.67
2019-04-11T11:18:48.167Z,100286.72
2019-04-11T11:21:03.623Z,100281.44
2019-04-11T11:23:40.907Z,100282.70
2019-04-11T11:26:22.857Z,100279.66
2019-04-11T11:29:15.224Z,100275.63
2019-04-11T11:31:47.991Z,100272.61
2019-04-11T11:34:23.665Z,100271.19
2019-04-11T11:37:14.593Z,100270.45
2019-04-11T11:40:13.197Z,100270.53
2019-04-11T11:42:44.074Z,100272.89
2019-04-11T11:45:23.889Z,100263.80
2019-04-11T11:48:03.431Z,100261.78
2019-04-11T11:50:36.032Z,100261.63
2019-04-11T11:53:22.632Z,100268.38
2019-04-11T11:55:55.724Z,100261.80
2019-04-11T11:58:29.931Z,100263.70
2019-04-11T12:01:05.832Z,100264.59
2019-04-11T12:03:44.518Z,100259.83
2019-04-11T12:06:22.309Z,100259.42
2019-04-11T12:09:00.353Z,100261.44
2019-04-11T12:11:35.404Z,100262.73
2019-04-11T12:14:25.526Z,100261.55
2019-04-11T12:17:06.413Z,100260.66
2019-04-11T12:20:05.376Z,100255.92
2019-04-11T12:22:53.605Z,100255.59
2019-04-11T12:25:29.286Z,100263.22
2019-04-11T12:28:05.395Z,100259.30
2019-04-11T12:30:44.957Z,100252.54
2019-04-11T12:33:35.355Z,100255.12
2019-04-11T12:36:11.416Z,100250.50
2019-04-11T12:38:57.426Z,100252.05
2019-04-11T12:41:39.544Z,100250.97
2019-04-11T12:44:16.228Z,100251.66
2019-04-11T12:46:55.364Z,100250.69
2019-04-11T12:49:28.661Z,100254.08
2019-04-11T12:52:18.172Z,100250.27
2019-04-11T12:54:57.623Z,100255.08
2019-04-11T12:57:47.264Z,100253.61
2019-04-11T13:00:20.570Z,100255.52
2019-04-11T13:03:02.617Z,100249.62
2019-04-11T13:05:35.709Z,100249.19
2019-04-11T13:08:20.962Z,100253.21
2019-04-11T13:10:52.551Z,100253.98
2019-04-11T13:13:31.313Z,100251.89
2019-04-11T13:16:11.902Z,100253.91
2019-04-11T13:18:55.429Z,100255.39
2019-04-11T13:21:46.650Z,100257.04
2019-04-11T13:24:25.760Z,100249.56
2019-04-11T13:27:01.802Z,100252.89
2019-04-11T13:29:44.066Z,100246.66
2019-04-11T13:32:30.953Z,100252.58
2019-04-11T13:35:05.278Z,100253.13
2019-04-11T13:37:58.693Z,100254.68
2019-04-11T13:40:31.751Z,100255.00
2019-04-11T13:43:21.422Z,100252.48
2019-04-11T13:46:03.382Z,100242.93
2019-04-11T13:48:48.472Z,100241.26
2019-04-11T13:51:30.972Z,100245.48
2019-04-11T13:54:20.271Z,100240.43
2019-04-11T13:57:12.778Z,100237.86
2019-04-11T14:00:02.234Z,100241.13
2019-04-11T14:02:36.994Z,100231.91
2019-04-11T14:05:10.866Z,100226.73
2019-04-11T14:07:44.627Z,100223.37
2019-04-11T14:10:17.548Z,100228.38
2019-04-11T14:12:48.906Z,100223.94
2019-04-11T14:15:21.733Z,100231.95
2019-04-11T14:18:17.447Z,100230.48
2019-04-11T14:20:53.443Z,100224.58
2019-04-11T14:23:26.740Z,100214.73
2019-04-11T14:25:59.177Z,100211.12
2019-04-11T14:28:31.907Z,100209.14
2019-04-11T14:31:23.032Z,100208.83
2019-04-11T14:33:59.158Z,100194.21
2019-04-11T14:36:48.498Z,100202.86
2019-04-11T14:39:37.413Z,100208.80
2019-04-11T14:42:12.055Z,100202.77
2019-04-11T14:44:44.948Z,100195.16
2019-04-11T14:47:24.046Z,100190.83
2019-04-11T14:50:03.183Z,100190.83
2019-04-11T14:52:39.101Z,100195.59
2019-04-11T14:55:10.869Z,100190.81
2019-04-11T14:57:53.565Z,100196.53
2019-04-11T15:00:33.923Z,100193.45
2019-04-11T15:03:13.139Z,100185.13
2019-04-11T15:05:46.088Z,100197.30
2019-04-11T15:08:19.200Z,100189.68
2019-04-11T15:10:58.179Z,100190.83
2019-04-11T15:13:31.140Z,100185.33
2019-04-11T15:16:07.604Z,100186.20
2019-04-11T15:18:40.890Z,100193.48
2019-04-11T15:21:19.840Z,100190.02
2019-04-11T15:23:51.546Z,100190.75
2019-04-11T15:26:24.747Z,100187.08
2019-04-11T15:29:00.675Z,100189.19
2019-04-11T15:31:39.116Z,100187.57
2019-04-11T15:34:20.497Z,100190.00
2019-04-11T15:36:59.400Z,100183.03
2019-04-11T15:39:48.645Z,100187.06
2019-04-11T15:42:24.736Z,100185.79
2019-04-11T15:45:14.140Z,100186.25
2019-04-11T15:47:50.580Z,100181.68
2019-04-11T15:50:30.694Z,100187.72
2019-04-11T15:53:06.590Z,100193.94
2019-04-11T15:55:52.548Z,100194.16
2019-04-11T15:58:25.220Z,100191.08
2019-04-11T16:00:57.970Z,100192.34
2019-04-11T16:03:29.260Z,100186.41
2019-04-11T16:06:05.334Z,100200.55
2019-04-11T16:08:39.460Z,100196.59
2019-04-11T16:11:15.088Z,100196.28
2019-04-11T16:13:48.290Z,100197.45
2019-04-11T16:16:21.395Z,100199.17
2019-04-11T16:19:10.860Z,100199.37
2019-04-11T16:21:56.145Z,100198.62
2019-04-11T16:24:29.337Z,100201.25
2019-04-11T16:27:02.397Z,100209.56
2019-04-11T16:29:39.448Z,100207.62
2019-04-11T16:32:15.360Z,100210.14
2019-04-11T16:35:04.856Z,100211.73
2019-04-11T16:37:36.726Z,100220.24
2019-04-11T16:40:09.897Z,100220.72
2019-04-11T16:42:43.241Z,100231.36
2019-04-11T16:45:16.709Z,100230.52
2019-04-11T16:48:02.589Z,100233.23
2019-04-11T16:50:34.248Z,100237.55
2019-04-11T16:53:10.533Z,100242.38
2019-04-11T16:55:43.443Z,100248.09
2019-04-11T16:58:19.338Z,100251.61
2019-04-11T17:00:52.136Z,100259.44
2019-04-11T17:03:24.858Z,100257.36
2019-04-11T17:05:56.428Z,100269.95
2019-04-11T17:08:30.182Z,100265.16
2019-04-11T17:11:15.146Z,100266.09
2019-04-11T17:13:46.978Z,100269.06
2019-04-11T17:16:18.497Z,100277.28
2019-04-11T17:18:49.900Z,100275.20
2019-04-11T17:21:23.182Z,100281.72
2019-04-11T17:23:55.658Z,100281.33
2019-04-11T17:26:27.185Z,100286.69
2019-04-11T17:28:58.434Z,100284.28
2019-04-11T17:31:29.919Z,100287.73
2019-04-11T17:34:02.409Z,100287.67
2019-04-11T17:36:34.257Z,100292.41
2019-04-11T17:39:07.713Z,100293.27
2019-04-11T17:41:42.052Z,100296.22
2019-04-11T17:44:13.403Z,100297.77
2019-04-11T17:46:45.105Z,100295.63
2019-04-11T17:49:16.738Z,100294.55
2019-04-11T17:51:55.687Z,100296.84
2019-04-11T17:54:24.730Z,100293.72
2019-04-11T17:56:56.335Z,100295.56
2019-04-11T17:59:28.805Z,100288.72
2019-04-11T18:02:00.720Z,100292.23
2019-04-11T18:04:33.375Z,100292.23
2019-04-11T18:07:04.783Z,100295.03
2019-04-11T18:09:36.211Z,100295.14
2019-04-11T18:12:07.793Z,100290.74
2019-04-11T18:14:40.204Z,100287.67
2019-04-11T18:17:11.966Z,100293.21
2019-04-11T18:19:43.644Z,100296.61
2019-04-11T18:22:15.428Z,100293.54
2019-04-11T18:24:49.896Z,100294.31
2019-04-11T18:27:21.860Z,100301.36
2019-04-11T18:29:55.694Z,100300.26
2019-04-11T18:32:27.260Z,100298.95
2019-04-11T18:35:01.774Z,100301.50
2019-04-11T18:37:32.752Z,100297.06
2019-04-11T18:40:10.188Z,100295.25
2019-04-11T18:42:40.182Z,100296.99
2019-04-11T18:45:11.871Z,100305.95
2019-04-11T18:47:43.600Z,100305.22
2019-04-11T18:50:15.761Z,100306.13
2019-04-11T18:52:47.280Z,100304.81
2019-04-11T18:55:18.892Z,100299.93
2019-04-11T18:57:54.091Z,100306.81
2019-04-11T19:00:29.794Z,100303.17
2019-04-11T19:03:01.392Z,100306.36
2019-04-11T19:05:32.964Z,100304.59
2019-04-11T19:08:04.714Z,100310.52
2019-04-11T19:10:36.202Z,100309.19
2019-04-11T19:13:07.793Z,100305.73
2019-04-11T19:15:39.335Z,100304.20
2019-04-11T19:18:10.929Z,100302.95
2019-04-11T19:20:42.648Z,100296.02
2019-04-11T19:23:14.231Z,100297.77
2019-04-11T19:25:45.485Z,100292.73
2019-04-11T19:28:17.119Z,100298.06
2019-04-11T19:30:48.633Z,100293.31
2019-04-11T19:33:20.444Z,100295.27
2019-04-11T19:35:51.994Z,100291.51
2019-04-11T19:38:31.015Z,100292.88
2019-04-11T19:41:02.431Z,100290.01
2019-04-11T19:43:34.087Z,100293.11
2019-04-11T19:46:05.546Z,100294.97
2019-04-11T19:48:37.203Z,100297.23
2019-04-11T19:51:10.851Z,100303.23
2019-04-11T19:53:41.449Z,100291.77
2019-04-11T19:56:14.170Z,100288.11
2019-04-11T19:58:45.558Z,100289.80
2019-04-11T20:01:16.985Z,100292.53
2019-04-11T20:03:48.552Z,100290.53
2019-04-11T20:06:19.950Z,100286.77
2019-04-11T20:08:51.311Z,100288.86
2019-04-11T20:11:22.763Z,100277.97
2019-04-11T20:13:54.092Z,100280.17
2019-04-11T20:16:25.715Z,100283.29
2019-04-11T20:18:58.040Z,100274.49
2019-04-11T20:21:30.477Z,100278.30
2019-04-11T20:24:02.159Z,100279.17
2019-04-11T20:26:33.823Z,100280.17
2019-04-11T20:29:05.420Z,100275.70
2019-04-11T20:31:37.106Z,100270.19
2019-04-11T20:34:08.704Z,100267.45
2019-04-11T20:36:41.239Z,100268.82
2019-04-11T20:39:15.218Z,100261.33
2019-04-11T20:41:46.656Z,100263.92
2019-04-11T20:44:18.201Z,100266.36
2019-04-11T20:46:49.626Z,100271.38
2019-04-11T20:49:21.158Z,100272.80
2019-04-11T20:51:52.526Z,100273.86
2019-04-11T20:54:23.929Z,100266.27
2019-04-11T20:56:55.527Z,100263.08
2019-04-11T20:59:34.318Z,100268.81
2019-04-11T21:02:00.180Z,100262.95
2019-04-11T21:04:31.924Z,100262.05
2019-04-11T21:07:03.286Z,100262.40
2019-04-11T21:09:34.808Z,100264.64
2019-04-11T21:12:07.429Z,100260.55
2019-04-11T21:14:39.553Z,100259.34
2019-04-11T21:17:11.002Z,100262.80
2019-04-11T21:19:42.582Z,100261.05
2019-04-11T21:22:13.931Z,100257.84
2019-04-11T21:24:45.562Z,100257.69
2019-04-11T21:27:16.924Z,100254.09
2019-04-11T21:29:48.359Z,100252.38
2019-04-11T21:32:19.834Z,100254.83
2019-04-11T21:35:02.370Z,100259.40
2019-04-11T21:37:36.722Z,100260.28
2019-04-11T21:40:07.144Z,100257.09
2019-04-11T21:42:38.295Z,100266.95
2019-04-11T21:45:10.017Z,100268.80
2019-04-11T21:47:41.671Z,100274.25
2019-04-11T21:50:13.329Z,100270.86
2019-04-11T21:52:44.821Z,100269.20
2019-04-11T21:55:16.445Z,100279.08
2019-04-11T21:57:48.879Z,100277.02
2019-04-11T22:00:24.994Z,100274.67
2019-04-11T22:02:58.096Z,100270.45
2019-04-11T22:05:29.869Z,100279.16
2019-04-11T22:08:03.688Z,100277.41
2019-04-11T22:10:34.595Z,100267.23
2019-04-11T22:13:09.826Z,100266.75
2019-04-11T22:15:42.030Z,100267.05
2019-04-11T22:18:15.875Z,100271.33
2019-04-11T22:20:45.934Z,100274.05
2019-04-11T22:23:17.399Z,100278.28
2019-04-11T22:25:49.039Z,100283.97
2019-04-11T22:28:22.004Z,100287.90
2019-04-11T22:30:55.086Z,100274.20
2019-04-11T22:33:44.989Z,100274.02
2019-04-11T22:36:16.540Z,100276.30
2019-04-11T22:38:48.146Z,100279.34
2019-04-11T22:41:19.887Z,100280.71
2019-04-11T22:43:51.438Z,100277.97
2019-04-11T22:46:23.247Z,100279.67
2019-04-11T22:48:54.602Z,100281.19
2019-04-11T22:51:26.170Z,100277.80
2019-04-11T22:54:00.481Z,100275.77
2019-04-11T22:56:30.884Z,100274.75
2019-04-11T22:59:02.387Z,100282.05
2019-04-11T23:01:34.271Z,100279.65
2019-04-11T23:04:05.921Z,100289.83
2019-04-11T23:06:37.550Z,100284.56
2019-04-11T23:09:09.099Z,100291.77
2019-04-11T23:11:44.525Z,100283.91
2019-04-11T23:14:15.957Z,100291.70
2019-04-11T23:16:48.011Z,100285.98
2019-04-11T23:19:19.446Z,100290.40
2019-04-11T23:21:51.017Z,100287.86
2019-04-11T23:24:22.388Z,100281.55
2019-04-11T23:26:53.785Z,100289.73
2019-04-11T23:29:25.303Z,100287.51
2019-04-11T23:31:56.656Z,100287.35
2019-04-11T23:34:28.041Z,100289.23
2019-04-11T23:36:59.529Z,100292.43
2019-04-11T23:39:30.944Z,100297.53
2019-04-11T23:42:02.558Z,100297.20
2019-04-11T23:44:33.947Z,100297.03
2019-04-11T23:47:05.423Z,100302.34
2019-04-11T23:49:37.943Z,100299.91
2019-04-11T23:52:09.600Z,100293.95
2019-04-11T23:54:40.966Z,100299.05
2019-04-11T23:57:12.637Z,100297.53
2019-04-11T23:59:44.131Z,100294.45
